sensor_id;sensor_type;location;lat;lon;timestamp;P1;durP1;ratioP1;P2;durP2;ratioP2
21394;SDS011;10858;42.714;23.180;2022-12-11T00:00:44;2.10;;;1.95;;
21394;SDS011;10858;42.714;23.180;2022-12-11T00:03:11;3.28;;;2.10;;
21394;SDS011;10858;42.714;23.180;2022-12-11T00:05:38;2.90;;;2.35;;
21394;SDS011;10858;42.714;23.180;2022-12-11T00:08:05;2.35;;;1.88;;
21394;SDS011;10858;42.714;23.180;2022-12-11T00:10:31;2.13;;;1.58;;
21394;SDS011;10858;42.714;23.180;2022-12-11T00:12:57;1.02;;;0.90;;
21394;SDS011;10858;42.714;23.180;2022-12-11T00:15:23;13.45;;;4.00;;
21394;SDS011;10858;42.714;23.180;2022-12-11T00:17:49;3.53;;;2.97;;
21394;SDS011;10858;42.714;23.180;2022-12-11T00:20:15;6.85;;;4.47;;
21394;SDS011;10858;42.714;23.180;2022-12-11T00:22:42;6.75;;;3.75;;
21394;SDS011;10858;42.714;23.180;2022-12-11T00:25:08;6.35;;;4.15;;
21394;SDS011;10858;42.714;23.180;2022-12-11T00:27:34;6.85;;;4.20;;
21394;SDS011;10858;42.714;23.180;2022-12-11T00:30:00;2.55;;;2.35;;
21394;SDS011;10858;42.714;23.180;2022-12-11T00:32:27;2.88;;;2.65;;
21394;SDS011;10858;42.714;23.180;2022-12-11T00:34:53;2.63;;;2.42;;
21394;SDS011;10858;42.714;23.180;2022-12-11T00:37:20;3.88;;;3.42;;
21394;SDS011;10858;42.714;23.180;2022-12-11T00:39:46;2.10;;;1.90;;
21394;SDS011;10858;42.714;23.180;2022-12-11T00:42:12;2.15;;;1.98;;
21394;SDS011;10858;42.714;23.180;2022-12-11T00:44:38;1.40;;;1.30;;
21394;SDS011;10858;42.714;23.180;2022-12-11T00:47:04;0.40;;;0.40;;
21394;SDS011;10858;42.714;23.180;2022-12-11T00:49:31;3.72;;;2.08;;
21394;SDS011;10858;42.714;23.180;2022-12-11T00:51:57;1.08;;;0.93;;
21394;SDS011;10858;42.714;23.180;2022-12-11T00:54:23;0.57;;;0.57;;
21394;SDS011;10858;42.714;23.180;2022-12-11T00:56:49;0.60;;;0.60;;
21394;SDS011;10858;42.714;23.180;2022-12-11T00:59:15;0.82;;;0.80;;
21394;SDS011;10858;42.714;23.180;2022-12-11T01:01:41;3.78;;;1.42;;
21394;SDS011;10858;42.714;23.180;2022-12-11T01:04:08;2.47;;;1.60;;
21394;SDS011;10858;42.714;23.180;2022-12-11T01:06:34;3.42;;;2.25;;
21394;SDS011;10858;42.714;23.180;2022-12-11T01:09:00;1.77;;;1.67;;
21394;SDS011;10858;42.714;23.180;2022-12-11T01:11:45;2.08;;;1.92;;
21394;SDS011;10858;42.714;23.180;2022-12-11T01:14:11;0.47;;;0.47;;
21394;SDS011;10858;42.714;23.180;2022-12-11T01:16:38;0.20;;;0.20;;
21394;SDS011;10858;42.714;23.180;2022-12-11T01:19:04;2.17;;;0.73;;
21394;SDS011;10858;42.714;23.180;2022-12-11T01:21:30;0.45;;;0.45;;
21394;SDS011;10858;42.714;23.180;2022-12-11T01:23:56;26.60;;;3.03;;
21394;SDS011;10858;42.714;23.180;2022-12-11T01:26:23;1.38;;;1.27;;
21394;SDS011;10858;42.714;23.180;2022-12-11T01:28:49;0.30;;;0.30;;
21394;SDS011;10858;42.714;23.180;2022-12-11T01:31:16;0.25;;;0.25;;
21394;SDS011;10858;42.714;23.180;2022-12-11T01:33:44;0.20;;;0.20;;
21394;SDS011;10858;42.714;23.180;2022-12-11T01:36:15;0.20;;;0.20;;
21394;SDS011;10858;42.714;23.180;2022-12-11T01:38:44;1.10;;;0.65;;
21394;SDS011;10858;42.714;23.180;2022-12-11T01:41:12;0.38;;;0.38;;
21394;SDS011;10858;42.714;23.180;2022-12-11T01:43:54;0.30;;;0.30;;
21394;SDS011;10858;42.714;23.180;2022-12-11T01:46:21;0.30;;;0.30;;
21394;SDS011;10858;42.714;23.180;2022-12-11T01:48:47;0.13;;;0.13;;
21394;SDS011;10858;42.714;23.180;2022-12-11T01:51:13;0.30;;;0.30;;
21394;SDS011;10858;42.714;23.180;2022-12-11T01:53:41;0.40;;;0.40;;
21394;SDS011;10858;42.714;23.180;2022-12-11T01:56:12;0.10;;;0.10;;
21394;SDS011;10858;42.714;23.180;2022-12-11T01:58:41;0.20;;;0.20;;
21394;SDS011;10858;42.714;23.180;2022-12-11T02:01:32;0.20;;;0.20;;
21394;SDS011;10858;42.714;23.180;2022-12-11T02:04:09;0.38;;;0.38;;
21394;SDS011;10858;42.714;23.180;2022-12-11T02:06:38;0.82;;;0.82;;
21394;SDS011;10858;42.714;23.180;2022-12-11T02:09:10;0.17;;;0.17;;
21394;SDS011;10858;42.714;23.180;2022-12-11T02:26:06;0.10;;;0.10;;
21394;SDS011;10858;42.714;23.180;2022-12-11T02:31:16;0.20;;;0.20;;
21394;SDS011;10858;42.714;23.180;2022-12-11T02:36:37;0.20;;;0.20;;
21394;SDS011;10858;42.714;23.180;2022-12-11T02:39:08;0.20;;;0.20;;
21394;SDS011;10858;42.714;23.180;2022-12-11T02:41:37;0.10;;;0.10;;
21394;SDS011;10858;42.714;23.180;2022-12-11T02:44:07;0.20;;;0.20;;
21394;SDS011;10858;42.714;23.180;2022-12-11T02:46:37;0.10;;;0.10;;
21394;SDS011;10858;42.714;23.180;2022-12-11T02:49:05;0.20;;;0.20;;
21394;SDS011;10858;42.714;23.180;2022-12-11T02:51:35;0.20;;;0.20;;
21394;SDS011;10858;42.714;23.180;2022-12-11T02:54:04;0.80;;;0.80;;
21394;SDS011;10858;42.714;23.180;2022-12-11T02:56:39;1.50;;;0.68;;
21394;SDS011;10858;42.714;23.180;2022-12-11T02:59:14;0.25;;;0.25;;
21394;SDS011;10858;42.714;23.180;2022-12-11T03:01:47;0.55;;;0.55;;
21394;SDS011;10858;42.714;23.180;2022-12-11T03:04:14;0.30;;;0.30;;
21394;SDS011;10858;42.714;23.180;2022-12-11T03:06:45;0.40;;;0.40;;
21394;SDS011;10858;42.714;23.180;2022-12-11T03:09:15;0.57;;;0.57;;
21394;SDS011;10858;42.714;23.180;2022-12-11T03:11:41;0.20;;;0.20;;
21394;SDS011;10858;42.714;23.180;2022-12-11T03:14:09;0.15;;;0.15;;
21394;SDS011;10858;42.714;23.180;2022-12-11T03:16:45;0.95;;;0.95;;
21394;SDS011;10858;42.714;23.180;2022-12-11T03:19:27;0.40;;;0.40;;
21394;SDS011;10858;42.714;23.180;2022-12-11T03:22:13;0.47;;;0.47;;
21394;SDS011;10858;42.714;23.180;2022-12-11T03:25:25;0.20;;;0.20;;
21394;SDS011;10858;42.714;23.180;2022-12-11T03:30:36;0.43;;;0.40;;
21394;SDS011;10858;42.714;23.180;2022-12-11T03:33:19;0.30;;;0.30;;
21394;SDS011;10858;42.714;23.180;2022-12-11T03:35:52;0.28;;;0.28;;
21394;SDS011;10858;42.714;23.180;2022-12-11T03:38:46;0.40;;;0.40;;
21394;SDS011;10858;42.714;23.180;2022-12-11T03:41:14;0.40;;;0.40;;
21394;SDS011;10858;42.714;23.180;2022-12-11T03:43:42;0.30;;;0.30;;
21394;SDS011;10858;42.714;23.180;2022-12-11T03:46:09;0.60;;;0.60;;
21394;SDS011;10858;42.714;23.180;2022-12-11T03:48:37;1.60;;;1.50;;
21394;SDS011;10858;42.714;23.180;2022-12-11T03:51:07;0.40;;;0.40;;
21394;SDS011;10858;42.714;23.180;2022-12-11T03:53:34;0.20;;;0.20;;
21394;SDS011;10858;42.714;23.180;2022-12-11T03:56:03;0.65;;;0.60;;
21394;SDS011;10858;42.714;23.180;2022-12-11T03:58:32;0.52;;;0.52;;
21394;SDS011;10858;42.714;23.180;2022-12-11T04:00:58;0.40;;;0.40;;
21394;SDS011;10858;42.714;23.180;2022-12-11T04:03:25;0.20;;;0.20;;
21394;SDS011;10858;42.714;23.180;2022-12-11T04:05:51;0.52;;;0.52;;
21394;SDS011;10858;42.714;23.180;2022-12-11T04:08:19;0.35;;;0.35;;
21394;SDS011;10858;42.714;23.180;2022-12-11T04:10:47;0.20;;;0.20;;
21394;SDS011;10858;42.714;23.180;2022-12-11T04:13:34;0.50;;;0.50;;
21394;SDS011;10858;42.714;23.180;2022-12-11T04:16:00;0.63;;;0.30;;
21394;SDS011;10858;42.714;23.180;2022-12-11T04:18:26;1.10;;;0.63;;
21394;SDS011;10858;42.714;23.180;2022-12-11T04:21:11;0.30;;;0.30;;
21394;SDS011;10858;42.714;23.180;2022-12-11T04:23:56;0.52;;;0.52;;
21394;SDS011;10858;42.714;23.180;2022-12-11T04:26:43;1.40;;;1.30;;
21394;SDS011;10858;42.714;23.180;2022-12-11T04:29:11;0.68;;;0.68;;
21394;SDS011;10858;42.714;23.180;2022-12-11T04:31:38;2.00;;;1.30;;
21394;SDS011;10858;42.714;23.180;2022-12-11T04:34:04;0.75;;;0.75;;
21394;SDS011;10858;42.714;23.180;2022-12-11T04:36:30;1.17;;;0.75;;
21394;SDS011;10858;42.714;23.180;2022-12-11T04:38:57;1.48;;;1.30;;
21394;SDS011;10858;42.714;23.180;2022-12-11T04:41:23;0.40;;;0.40;;
21394;SDS011;10858;42.714;23.180;2022-12-11T04:43:49;0.90;;;0.90;;
21394;SDS011;10858;42.714;23.180;2022-12-11T04:46:17;1.02;;;0.73;;
21394;SDS011;10858;42.714;23.180;2022-12-11T04:48:45;0.50;;;0.50;;
21394;SDS011;10858;42.714;23.180;2022-12-11T04:51:11;7.68;;;1.10;;
21394;SDS011;10858;42.714;23.180;2022-12-11T04:53:38;0.40;;;0.40;;
21394;SDS011;10858;42.714;23.180;2022-12-11T04:56:05;0.30;;;0.30;;
21394;SDS011;10858;42.714;23.180;2022-12-11T04:58:32;0.52;;;0.52;;
21394;SDS011;10858;42.714;23.180;2022-12-11T05:01:00;0.82;;;0.82;;
21394;SDS011;10858;42.714;23.180;2022-12-11T05:03:33;0.60;;;0.60;;
21394;SDS011;10858;42.714;23.180;2022-12-11T05:05:59;0.43;;;0.43;;
21394;SDS011;10858;42.714;23.180;2022-12-11T05:08:25;5.05;;;1.70;;
21394;SDS011;10858;42.714;23.180;2022-12-11T05:10:55;5.38;;;1.35;;
21394;SDS011;10858;42.714;23.180;2022-12-11T05:13:26;14.23;;;1.10;;
21394;SDS011;10858;42.714;23.180;2022-12-11T05:15:53;0.20;;;0.20;;
21394;SDS011;10858;42.714;23.180;2022-12-11T05:18:20;0.20;;;0.20;;
21394;SDS011;10858;42.714;23.180;2022-12-11T05:20:55;1.80;;;0.80;;
21394;SDS011;10858;42.714;23.180;2022-12-11T05:23:23;0.38;;;0.38;;
21394;SDS011;10858;42.714;23.180;2022-12-11T05:25:57;1.55;;;0.95;;
21394;SDS011;10858;42.714;23.180;2022-12-11T05:28:25;0.40;;;0.40;;
21394;SDS011;10858;42.714;23.180;2022-12-11T05:30:54;0.32;;;0.32;;
21394;SDS011;10858;42.714;23.180;2022-12-11T05:33:25;0.77;;;0.77;;
21394;SDS011;10858;42.714;23.180;2022-12-11T05:35:52;0.73;;;0.65;;
21394;SDS011;10858;42.714;23.180;2022-12-11T05:38:18;2.92;;;0.77;;
21394;SDS011;10858;42.714;23.180;2022-12-11T05:40:44;0.40;;;0.40;;
21394;SDS011;10858;42.714;23.180;2022-12-11T05:43:20;1.17;;;0.85;;
21394;SDS011;10858;42.714;23.180;2022-12-11T05:45:46;0.50;;;0.50;;
21394;SDS011;10858;42.714;23.180;2022-12-11T05:48:13;0.25;;;0.25;;
21394;SDS011;10858;42.714;23.180;2022-12-11T05:50:39;1.10;;;0.88;;
21394;SDS011;10858;42.714;23.180;2022-12-11T05:53:05;0.45;;;0.45;;
21394;SDS011;10858;42.714;23.180;2022-12-11T05:55:34;0.98;;;0.57;;
21394;SDS011;10858;42.714;23.180;2022-12-11T05:58:00;0.82;;;0.82;;
21394;SDS011;10858;42.714;23.180;2022-12-11T06:00:27;0.93;;;0.60;;
21394;SDS011;10858;42.714;23.180;2022-12-11T06:02:53;2.65;;;0.55;;
21394;SDS011;10858;42.714;23.180;2022-12-11T06:05:19;0.75;;;0.75;;
21394;SDS011;10858;42.714;23.180;2022-12-11T06:07:45;0.77;;;0.77;;
21394;SDS011;10858;42.714;23.180;2022-12-11T06:10:11;3.50;;;1.17;;
21394;SDS011;10858;42.714;23.180;2022-12-11T06:12:38;0.43;;;0.43;;
21394;SDS011;10858;42.714;23.180;2022-12-11T06:15:04;0.90;;;0.90;;
21394;SDS011;10858;42.714;23.180;2022-12-11T06:17:32;0.40;;;0.40;;
21394;SDS011;10858;42.714;23.180;2022-12-11T06:19:58;0.60;;;0.60;;
21394;SDS011;10858;42.714;23.180;2022-12-11T06:22:24;0.85;;;0.85;;
21394;SDS011;10858;42.714;23.180;2022-12-11T06:24:50;4.18;;;1.10;;
21394;SDS011;10858;42.714;23.180;2022-12-11T06:27:17;20.58;;;1.85;;
21394;SDS011;10858;42.714;23.180;2022-12-11T06:29:43;0.43;;;0.43;;
21394;SDS011;10858;42.714;23.180;2022-12-11T06:32:10;1.75;;;1.17;;
21394;SDS011;10858;42.714;23.180;2022-12-11T06:34:36;0.30;;;0.30;;
21394;SDS011;10858;42.714;23.180;2022-12-11T06:37:02;2.90;;;1.63;;
21394;SDS011;10858;42.714;23.180;2022-12-11T06:39:28;1.15;;;1.05;;
21394;SDS011;10858;42.714;23.180;2022-12-11T06:41:55;1.00;;;1.00;;
21394;SDS011;10858;42.714;23.180;2022-12-11T06:44:21;0.50;;;0.50;;
21394;SDS011;10858;42.714;23.180;2022-12-11T06:46:48;0.30;;;0.30;;
21394;SDS011;10858;42.714;23.180;2022-12-11T06:49:15;0.30;;;0.30;;
21394;SDS011;10858;42.714;23.180;2022-12-11T06:51:41;0.45;;;0.35;;
21394;SDS011;10858;42.714;23.180;2022-12-11T06:54:07;5.43;;;0.73;;
21394;SDS011;10858;42.714;23.180;2022-12-11T06:56:33;0.30;;;0.30;;
21394;SDS011;10858;42.714;23.180;2022-12-11T06:59:00;0.85;;;0.82;;
21394;SDS011;10858;42.714;23.180;2022-12-11T07:01:26;0.93;;;0.55;;
21394;SDS011;10858;42.714;23.180;2022-12-11T07:03:53;0.30;;;0.30;;
21394;SDS011;10858;42.714;23.180;2022-12-11T07:06:20;0.40;;;0.40;;
21394;SDS011;10858;42.714;23.180;2022-12-11T07:08:47;2.20;;;1.30;;
21394;SDS011;10858;42.714;23.180;2022-12-11T07:11:14;0.30;;;0.30;;
21394;SDS011;10858;42.714;23.180;2022-12-11T07:13:42;1.08;;;0.45;;
21394;SDS011;10858;42.714;23.180;2022-12-11T07:16:09;1.45;;;1.15;;
21394;SDS011;10858;42.714;23.180;2022-12-11T07:18:38;0.50;;;0.40;;
21394;SDS011;10858;42.714;23.180;2022-12-11T07:21:06;1.35;;;0.55;;
21394;SDS011;10858;42.714;23.180;2022-12-11T07:23:34;0.38;;;0.38;;
21394;SDS011;10858;42.714;23.180;2022-12-11T07:26:04;0.20;;;0.20;;
21394;SDS011;10858;42.714;23.180;2022-12-11T07:28:35;0.40;;;0.40;;
21394;SDS011;10858;42.714;23.180;2022-12-11T07:31:08;1.10;;;0.57;;
21394;SDS011;10858;42.714;23.180;2022-12-11T07:33:35;1.08;;;0.82;;
21394;SDS011;10858;42.714;23.180;2022-12-11T07:36:02;0.52;;;0.52;;
21394;SDS011;10858;42.714;23.180;2022-12-11T07:38:30;0.47;;;0.47;;
21394;SDS011;10858;42.714;23.180;2022-12-11T07:41:00;0.30;;;0.30;;
21394;SDS011;10858;42.714;23.180;2022-12-11T07:43:27;0.20;;;0.20;;
21394;SDS011;10858;42.714;23.180;2022-12-11T07:45:53;2.50;;;0.80;;
21394;SDS011;10858;42.714;23.180;2022-12-11T07:48:19;1.75;;;0.90;;
21394;SDS011;10858;42.714;23.180;2022-12-11T07:50:45;0.50;;;0.50;;
21394;SDS011;10858;42.714;23.180;2022-12-11T07:53:12;0.10;;;0.10;;
21394;SDS011;10858;42.714;23.180;2022-12-11T07:55:38;0.65;;;0.65;;
21394;SDS011;10858;42.714;23.180;2022-12-11T07:58:04;0.55;;;0.55;;
21394;SDS011;10858;42.714;23.180;2022-12-11T08:00:30;0.75;;;0.30;;
21394;SDS011;10858;42.714;23.180;2022-12-11T08:02:56;0.70;;;0.25;;
21394;SDS011;10858;42.714;23.180;2022-12-11T08:05:23;0.20;;;0.20;;
21394;SDS011;10858;42.714;23.180;2022-12-11T08:07:49;0.40;;;0.40;;
21394;SDS011;10858;42.714;23.180;2022-12-11T08:10:15;0.20;;;0.20;;
21394;SDS011;10858;42.714;23.180;2022-12-11T08:12:41;0.20;;;0.20;;
21394;SDS011;10858;42.714;23.180;2022-12-11T08:15:07;0.20;;;0.20;;
21394;SDS011;10858;42.714;23.180;2022-12-11T08:17:34;0.30;;;0.30;;
21394;SDS011;10858;42.714;23.180;2022-12-11T08:20:00;4.30;;;0.50;;
21394;SDS011;10858;42.714;23.180;2022-12-11T08:22:27;0.32;;;0.32;;
21394;SDS011;10858;42.714;23.180;2022-12-11T08:24:53;0.90;;;0.85;;
21394;SDS011;10858;42.714;23.180;2022-12-11T08:27:19;0.20;;;0.20;;
21394;SDS011;10858;42.714;23.180;2022-12-11T08:29:46;0.82;;;0.63;;
21394;SDS011;10858;42.714;23.180;2022-12-11T08:32:12;0.35;;;0.28;;
21394;SDS011;10858;42.714;23.180;2022-12-11T08:34:40;0.38;;;0.38;;
21394;SDS011;10858;42.714;23.180;2022-12-11T08:37:06;0.65;;;0.43;;
21394;SDS011;10858;42.714;23.180;2022-12-11T08:39:33;0.40;;;0.40;;
21394;SDS011;10858;42.714;23.180;2022-12-11T08:41:59;0.30;;;0.22;;
21394;SDS011;10858;42.714;23.180;2022-12-11T08:44:25;0.20;;;0.20;;
21394;SDS011;10858;42.714;23.180;2022-12-11T08:46:52;0.30;;;0.30;;
21394;SDS011;10858;42.714;23.180;2022-12-11T08:49:18;0.70;;;0.70;;
21394;SDS011;10858;42.714;23.180;2022-12-11T08:51:44;0.82;;;0.82;;
21394;SDS011;10858;42.714;23.180;2022-12-11T08:54:10;0.30;;;0.30;;
21394;SDS011;10858;42.714;23.180;2022-12-11T08:56:36;0.40;;;0.40;;
21394;SDS011;10858;42.714;23.180;2022-12-11T08:59:03;0.30;;;0.30;;
21394;SDS011;10858;42.714;23.180;2022-12-11T09:01:30;1.25;;;0.75;;
21394;SDS011;10858;42.714;23.180;2022-12-11T09:03:56;0.52;;;0.52;;
21394;SDS011;10858;42.714;23.180;2022-12-11T09:06:24;0.40;;;0.40;;
21394;SDS011;10858;42.714;23.180;2022-12-11T09:08:52;3.00;;;1.40;;
21394;SDS011;10858;42.714;23.180;2022-12-11T09:11:24;0.55;;;0.40;;
21394;SDS011;10858;42.714;23.180;2022-12-11T09:13:52;0.30;;;0.30;;
21394;SDS011;10858;42.714;23.180;2022-12-11T09:16:19;1.35;;;1.00;;
21394;SDS011;10858;42.714;23.180;2022-12-11T09:18:49;0.10;;;0.10;;
21394;SDS011;10858;42.714;23.180;2022-12-11T09:21:18;0.10;;;0.10;;
21394;SDS011;10858;42.714;23.180;2022-12-11T09:23:46;1.15;;;0.68;;
21394;SDS011;10858;42.714;23.180;2022-12-11T09:26:14;0.47;;;0.30;;
21394;SDS011;10858;42.714;23.180;2022-12-11T09:28:42;0.20;;;0.20;;
21394;SDS011;10858;42.714;23.180;2022-12-11T09:31:09;0.20;;;0.20;;
21394;SDS011;10858;42.714;23.180;2022-12-11T09:33:37;2.00;;;1.00;;
21394;SDS011;10858;42.714;23.180;2022-12-11T09:36:03;0.32;;;0.32;;
21394;SDS011;10858;42.714;23.180;2022-12-11T09:38:30;0.52;;;0.40;;
21394;SDS011;10858;42.714;23.180;2022-12-11T09:40:57;0.20;;;0.20;;
21394;SDS011;10858;42.714;23.180;2022-12-11T09:43:38;0.30;;;0.30;;
21394;SDS011;10858;42.714;23.180;2022-12-11T09:46:13;0.50;;;0.50;;
21394;SDS011;10858;42.714;23.180;2022-12-11T09:48:41;0.45;;;0.45;;
21394;SDS011;10858;42.714;23.180;2022-12-11T09:53:46;0.10;;;0.10;;
21394;SDS011;10858;42.714;23.180;2022-12-11T10:04:27;0.80;;;0.80;;
21394;SDS011;10858;42.714;23.180;2022-12-11T10:07:13;0.10;;;0.10;;
21394;SDS011;10858;42.714;23.180;2022-12-11T10:09:48;0.52;;;0.47;;
21394;SDS011;10858;42.714;23.180;2022-12-11T10:18:12;0.50;;;0.50;;
21394;SDS011;10858;42.714;23.180;2022-12-11T10:20:42;1.08;;;0.65;;
21394;SDS011;10858;42.714;23.180;2022-12-11T10:23:19;0.20;;;0.20;;
21394;SDS011;10858;42.714;23.180;2022-12-11T10:25:50;0.70;;;0.65;;
21394;SDS011;10858;42.714;23.180;2022-12-11T10:28:21;0.80;;;0.57;;
21394;SDS011;10858;42.714;23.180;2022-12-11T10:30:49;0.30;;;0.30;;
21394;SDS011;10858;42.714;23.180;2022-12-11T10:33:49;0.55;;;0.55;;
21394;SDS011;10858;42.714;23.180;2022-12-11T10:36:30;0.20;;;0.20;;
21394;SDS011;10858;42.714;23.180;2022-12-11T10:38:59;0.20;;;0.20;;
21394;SDS011;10858;42.714;23.180;2022-12-11T10:43:55;0.15;;;0.15;;
21394;SDS011;10858;42.714;23.180;2022-12-11T10:46:23;0.10;;;0.10;;
21394;SDS011;10858;42.714;23.180;2022-12-11T10:54:04;0.20;;;0.20;;
21394;SDS011;10858;42.714;23.180;2022-12-11T10:56:51;0.20;;;0.20;;
21394;SDS011;10858;42.714;23.180;2022-12-11T10:59:21;1.70;;;0.60;;
21394;SDS011;10858;42.714;23.180;2022-12-11T11:01:58;0.25;;;0.25;;
21394;SDS011;10858;42.714;23.180;2022-12-11T11:04:35;0.30;;;0.30;;
21394;SDS011;10858;42.714;23.180;2022-12-11T11:07:25;3.22;;;0.93;;
21394;SDS011;10858;42.714;23.180;2022-12-11T11:12:42;0.10;;;0.10;;
21394;SDS011;10858;42.714;23.180;2022-12-11T11:15:11;5.38;;;1.23;;
21394;SDS011;10858;42.714;23.180;2022-12-11T11:17:48;0.20;;;0.20;;
21394;SDS011;10858;42.714;23.180;2022-12-11T11:20:21;0.32;;;0.32;;
21394;SDS011;10858;42.714;23.180;2022-12-11T11:22:51;1.67;;;0.63;;
21394;SDS011;10858;42.714;23.180;2022-12-11T11:25:21;0.43;;;0.32;;
21394;SDS011;10858;42.714;23.180;2022-12-11T11:30:25;0.30;;;0.30;;
21394;SDS011;10858;42.714;23.180;2022-12-11T11:32:57;0.32;;;0.32;;
21394;SDS011;10858;42.714;23.180;2022-12-11T11:35:28;0.80;;;0.60;;
21394;SDS011;10858;42.714;23.180;2022-12-11T11:43:31;2.92;;;1.20;;
21394;SDS011;10858;42.714;23.180;2022-12-11T11:46:13;12.43;;;1.95;;
21394;SDS011;10858;42.714;23.180;2022-12-11T11:51:33;0.20;;;0.20;;
21394;SDS011;10858;42.714;23.180;2022-12-11T11:56:57;0.20;;;0.20;;
21394;SDS011;10858;42.714;23.180;2022-12-11T11:59:31;0.20;;;0.20;;
21394;SDS011;10858;42.714;23.180;2022-12-11T12:02:08;0.20;;;0.20;;
21394;SDS011;10858;42.714;23.180;2022-12-11T12:04:39;0.43;;;0.30;;
21394;SDS011;10858;42.714;23.180;2022-12-11T12:09:54;1.10;;;0.50;;
21394;SDS011;10858;42.714;23.180;2022-12-11T12:12:56;0.43;;;0.30;;
21394;SDS011;10858;42.714;23.180;2022-12-11T12:15:53;1.35;;;0.55;;
21394;SDS011;10858;42.714;23.180;2022-12-11T12:26:45;0.45;;;0.45;;
21394;SDS011;10858;42.714;23.180;2022-12-11T12:32:15;0.43;;;0.43;;
21394;SDS011;10858;42.714;23.180;2022-12-11T12:45:45;0.40;;;0.40;;
21394;SDS011;10858;42.714;23.180;2022-12-11T12:48:34;0.30;;;0.30;;
21394;SDS011;10858;42.714;23.180;2022-12-11T12:51:00;1.00;;;1.00;;
21394;SDS011;10858;42.714;23.180;2022-12-11T12:53:29;0.30;;;0.30;;
21394;SDS011;10858;42.714;23.180;2022-12-11T12:55:58;0.22;;;0.22;;
21394;SDS011;10858;42.714;23.180;2022-12-11T12:58:29;0.63;;;0.63;;
21394;SDS011;10858;42.714;23.180;2022-12-11T13:01:08;0.30;;;0.30;;
21394;SDS011;10858;42.714;23.180;2022-12-11T13:06:36;0.20;;;0.20;;
21394;SDS011;10858;42.714;23.180;2022-12-11T13:09:18;0.20;;;0.20;;
21394;SDS011;10858;42.714;23.180;2022-12-11T13:11:48;0.82;;;0.82;;
21394;SDS011;10858;42.714;23.180;2022-12-11T13:16:49;0.70;;;0.70;;
21394;SDS011;10858;42.714;23.180;2022-12-11T13:19:17;0.40;;;0.40;;
21394;SDS011;10858;42.714;23.180;2022-12-11T13:21:56;0.45;;;0.45;;
21394;SDS011;10858;42.714;23.180;2022-12-11T13:32:42;0.30;;;0.30;;
21394;SDS011;10858;42.714;23.180;2022-12-11T13:35:27;0.30;;;0.30;;
21394;SDS011;10858;42.714;23.180;2022-12-11T13:37:54;0.40;;;0.40;;
21394;SDS011;10858;42.714;23.180;2022-12-11T13:40:41;0.38;;;0.38;;
21394;SDS011;10858;42.714;23.180;2022-12-11T13:43:14;0.50;;;0.50;;
21394;SDS011;10858;42.714;23.180;2022-12-11T13:45:45;0.75;;;0.75;;
21394;SDS011;10858;42.714;23.180;2022-12-11T13:48:20;0.63;;;0.63;;
21394;SDS011;10858;42.714;23.180;2022-12-11T13:50:51;1.65;;;1.55;;
21394;SDS011;10858;42.714;23.180;2022-12-11T13:53:20;0.73;;;0.73;;
21394;SDS011;10858;42.714;23.180;2022-12-11T13:55:57;1.15;;;1.15;;
21394;SDS011;10858;42.714;23.180;2022-12-11T13:58:25;0.30;;;0.30;;
21394;SDS011;10858;42.714;23.180;2022-12-11T14:04:11;0.38;;;0.38;;
21394;SDS011;10858;42.714;23.180;2022-12-11T14:06:43;0.32;;;0.32;;
21394;SDS011;10858;42.714;23.180;2022-12-11T14:09:13;0.73;;;0.73;;
21394;SDS011;10858;42.714;23.180;2022-12-11T14:11:45;0.43;;;0.43;;
21394;SDS011;10858;42.714;23.180;2022-12-11T14:17:22;0.88;;;0.88;;
21394;SDS011;10858;42.714;23.180;2022-12-11T14:19:51;0.40;;;0.40;;
21394;SDS011;10858;42.714;23.180;2022-12-11T14:22:20;2.25;;;1.95;;
21394;SDS011;10858;42.714;23.180;2022-12-11T14:24:49;0.47;;;0.47;;
21394;SDS011;10858;42.714;23.180;2022-12-11T14:27:27;0.65;;;0.65;;
21394;SDS011;10858;42.714;23.180;2022-12-11T14:29:54;0.70;;;0.70;;
21394;SDS011;10858;42.714;23.180;2022-12-11T14:32:26;0.40;;;0.40;;
21394;SDS011;10858;42.714;23.180;2022-12-11T14:34:59;0.93;;;0.85;;
21394;SDS011;10858;42.714;23.180;2022-12-11T14:37:29;0.98;;;0.95;;
21394;SDS011;10858;42.714;23.180;2022-12-11T14:42:32;1.02;;;1.02;;
21394;SDS011;10858;42.714;23.180;2022-12-11T14:45:06;0.60;;;0.60;;
21394;SDS011;10858;42.714;23.180;2022-12-11T14:47:42;0.40;;;0.40;;
21394;SDS011;10858;42.714;23.180;2022-12-11T14:50:20;1.33;;;1.17;;
21394;SDS011;10858;42.714;23.180;2022-12-11T14:52:52;0.30;;;0.30;;
21394;SDS011;10858;42.714;23.180;2022-12-11T14:55:42;0.40;;;0.40;;
21394;SDS011;10858;42.714;23.180;2022-12-11T15:00:42;0.55;;;0.55;;
21394;SDS011;10858;42.714;23.180;2022-12-11T15:05:51;0.38;;;0.38;;
21394;SDS011;10858;42.714;23.180;2022-12-11T15:08:20;0.70;;;0.70;;
21394;SDS011;10858;42.714;23.180;2022-12-11T15:11:02;1.58;;;0.60;;
21394;SDS011;10858;42.714;23.180;2022-12-11T15:13:38;0.45;;;0.45;;
21394;SDS011;10858;42.714;23.180;2022-12-11T15:16:16;0.30;;;0.30;;
21394;SDS011;10858;42.714;23.180;2022-12-11T15:18:46;0.85;;;0.85;;
21394;SDS011;10858;42.714;23.180;2022-12-11T15:21:14;0.82;;;0.82;;
21394;SDS011;10858;42.714;23.180;2022-12-11T15:26:31;0.30;;;0.30;;
21394;SDS011;10858;42.714;23.180;2022-12-11T15:29:03;0.50;;;0.50;;
21394;SDS011;10858;42.714;23.180;2022-12-11T15:31:56;0.80;;;0.80;;
21394;SDS011;10858;42.714;23.180;2022-12-11T15:34:25;0.30;;;0.30;;
21394;SDS011;10858;42.714;23.180;2022-12-11T15:36:58;0.55;;;0.55;;
21394;SDS011;10858;42.714;23.180;2022-12-11T15:39:24;2.83;;;2.03;;
21394;SDS011;10858;42.714;23.180;2022-12-11T15:41:50;2.15;;;1.95;;
21394;SDS011;10858;42.714;23.180;2022-12-11T15:44:17;0.63;;;0.52;;
21394;SDS011;10858;42.714;23.180;2022-12-11T15:46:45;0.30;;;0.30;;
21394;SDS011;10858;42.714;23.180;2022-12-11T15:49:11;0.30;;;0.30;;
21394;SDS011;10858;42.714;23.180;2022-12-11T15:51:38;0.60;;;0.60;;
21394;SDS011;10858;42.714;23.180;2022-12-11T15:54:04;0.40;;;0.40;;
21394;SDS011;10858;42.714;23.180;2022-12-11T15:56:30;2.83;;;1.08;;
21394;SDS011;10858;42.714;23.180;2022-12-11T15:58:59;0.85;;;0.60;;
21394;SDS011;10858;42.714;23.180;2022-12-11T16:01:28;1.42;;;1.33;;
21394;SDS011;10858;42.714;23.180;2022-12-11T16:03:55;1.75;;;0.88;;
21394;SDS011;10858;42.714;23.180;2022-12-11T16:06:21;0.63;;;0.63;;
21394;SDS011;10858;42.714;23.180;2022-12-11T16:08:47;0.60;;;0.60;;
21394;SDS011;10858;42.714;23.180;2022-12-11T16:11:13;0.30;;;0.30;;
21394;SDS011;10858;42.714;23.180;2022-12-11T16:13:39;0.40;;;0.40;;
21394;SDS011;10858;42.714;23.180;2022-12-11T16:16:06;0.70;;;0.70;;
21394;SDS011;10858;42.714;23.180;2022-12-11T16:18:32;0.65;;;0.60;;
21394;SDS011;10858;42.714;23.180;2022-12-11T16:21:02;0.50;;;0.50;;
21394;SDS011;10858;42.714;23.180;2022-12-11T16:23:30;0.85;;;0.85;;
21394;SDS011;10858;42.714;23.180;2022-12-11T16:25:56;1.40;;;1.33;;
21394;SDS011;10858;42.714;23.180;2022-12-11T16:28:22;0.95;;;0.65;;
21394;SDS011;10858;42.714;23.180;2022-12-11T16:30:48;1.60;;;1.50;;
21394;SDS011;10858;42.714;23.180;2022-12-11T16:33:14;0.52;;;0.52;;
21394;SDS011;10858;42.714;23.180;2022-12-11T16:35:41;0.40;;;0.40;;
21394;SDS011;10858;42.714;23.180;2022-12-11T16:38:07;0.50;;;0.50;;
21394;SDS011;10858;42.714;23.180;2022-12-11T16:40:34;0.63;;;0.63;;
21394;SDS011;10858;42.714;23.180;2022-12-11T16:43:01;0.50;;;0.50;;
21394;SDS011;10858;42.714;23.180;2022-12-11T16:45:28;0.52;;;0.52;;
21394;SDS011;10858;42.714;23.180;2022-12-11T16:47:55;0.60;;;0.60;;